Werte bis 5 Uhr SommerzeitDiagramme Niedergude: Tagesdaten MonatsdatenCSV-Datei: Niedergude21.csv

Wetterdaten 2021 Station: Niedergude
Temperaturen in °C relative Nieder- Global- Wind Wind Wind- Sonnen-
Datum Boden Boden Luft Luft Luft Luft Feuchte schlag strahlung max richtung schein
20 cm 5 cm 20 cm 2 m 2 m max 2 m min % mm W/m2*d m/s m/s ° h

06.05.2021 6,9 7,1 0,9 3,0 3,7 2,4 84 0,0 0 0,6 1,8 --- ---
05.05.2021 6,8 7,6 6,3 6,3 9,1 3,1 68 0,3 3297 2,5 11,9 --- 9,7
04.05.2021 7,2 8,0 8,3 9,2 12,7 6,3 58 10,2 1354 2,7 14,0 --- 3,3
03.05.2021 7,1 8,1 8,6 7,5 14,7 -0,7 51 0,0 5813 1,5 8,8 --- 11,0
02.05.2021 7,6 8,6 7,7 7,5 10,1 4,8 54 0,0 1843 2,1 8,7 --- 7,2
01.05.2021 7,5 8,9 10,6 9,8 14,3 5,6 63 0,0 3241 1,0 4,7 --- 9,5
30.04.2021 7,5 8,7 8,3 8,2 12,7 6,0 65 0,0 1953 1,1 6,4 --- 7,0
29.04.2021 7,5 9,2 11,0 10,5 15,6 6,7 66 5,0 3575 2,1 12,2 --- 8,2
28.04.2021 6,8 8,3 11,9 12,1 20,6 0,8 41 0,2 5491 1,2 9,1 --- 11,0
27.04.2021 6,5 7,9 8,6 8,4 14,6 2,1 34 0,0 6862 2,9 9,1 --- 11,9
26.04.2021 6,3 7,3 6,5 6,4 13,4 -2,2 45 0,0 6842 1,4 7,9 --- 11,5
25.04.2021 6,4 7,6 5,2 5,0 11,5 -0,6 60 0,0 6132 1,6 6,4 --- 11,6
24.04.2021 6,4 7,6 7,0 6,5 15,1 -1,0 63 0,0 5696 1,0 5,4 --- 10,5
23.04.2021 6,4 7,6 6,1 5,9 13,9 -0,9 63 0,0 5417 1,1 6,6 --- 10,1
22.04.2021 6,5 8,0 6,9 6,1 11,8 0,0 54 0,0 5876 2,1 8,8 --- 10,8
21.04.2021 6,2 8,0 10,7 9,9 18,5 3,4 63 0,0 5203 1,6 8,1 --- 9,9
20.04.2021 5,6 7,0 8,6 8,3 18,6 0,9 75 0,5 4545 0,9 8,3 --- 9,6
19.04.2021 5,4 6,8 7,8 8,0 13,9 4,5 78 11,0 2480 0,9 7,0 --- 7,2
18.04.2021 4,8 6,1 7,6 7,3 13,2 4,4 85 10,4 1936 0,5 4,5 --- 6,5
17.04.2021 4,5 5,3 5,0 5,2 8,8 0,2 62 0,0 1416 0,8 5,7 --- 4,5
16.04.2021 4,2 5,2 5,5 5,6 11,0 0,1 53 0,0 3116 1,4 8,0 --- 9,4
15.04.2021 4,1 4,6 2,3 2,2 7,4 -3,2 73 1,4 2611 1,1 9,3 --- 8,3
14.04.2021 4,4 4,9 1,9 1,4 8,0 -3,2 80 0,0 3349 1,0 6,7 --- 7,0
13.04.2021 4,6 5,4 3,2 2,5 9,9 -2,5 69 0,0 3526 1,0 7,9 --- 8,4
12.04.2021 4,8 5,7 3,6 3,0 8,6 -0,2 74 0,0 2954 1,5 6,9 --- 7,6
11.04.2021 4,8 6,1 7,3 7,6 14,5 2,1 84 0,0 1146 1,1 7,8 --- 3,1
10.04.2021 4,3 5,4 6,6 7,0 9,1 4,7 87 0,0 867 0,6 4,5 --- 3,2
09.04.2021 3,7 4,5 6,8 6,6 14,1 0,2 48 0,0 4380 1,4 10,9 --- 9,8
08.04.2021 3,7 4,2 2,7 2,5 6,2 0,1 66 0,0 2123 2,0 7,5 --- 7,1
07.04.2021 3,9 4,2 1,0 1,1 4,5 -1,0 80 0,0 1102 2,6 8,8 --- 2,6
06.04.2021 4,2 4,6 1,6 1,0 5,3 -1,3 72 0,0 3305 3,0 12,2 --- 6,1
05.04.2021 4,9 5,2 1,3 2,0 5,2 -1,4 79 0,0 989 2,6 12,5 --- 3,8
04.04.2021 5,3 6,1 4,7 4,2 8,8 -0,1 71 0,0 3086 1,3 6,0 --- 8,5
03.04.2021 5,7 6,7 5,0 5,1 10,8 0,8 68 0,0 2883 1,9 6,9 --- 8,0
02.04.2021 6,0 7,3 7,2 6,8 10,4 5,2 64 0,0 3204 2,1 8,7 --- 7,8
01.04.2021 5,8 7,5 11,7 11,9 22,3 5,2 56 0,0 4231 1,7 10,9 --- 9,0
31.03.2021 5,2 6,9 13,2 14,0 26,0 2,6 43 0,0 4724 0,9 5,2 --- 10,1
30.03.2021 4,8 6,3 11,2 12,1 24,3 1,6 49 0,0 4807 0,8 4,1 --- 10,1
29.03.2021 4,3 5,9 12,5 12,7 20,4 5,8 41 0,0 4300 1,6 7,9 --- 10,1
28.03.2021 3,8 4,6 6,5 6,8 12,7 -0,8 61 0,0 2255 1,7 10,8 --- 8,1
27.03.2021 4,3 5,4 5,4 6,0 11,0 -0,2 66 1,7 2124 2,3 13,6 --- 6,6
26.03.2021 4,0 5,5 9,9 9,9 16,2 4,0 61 0,0 3334 1,2 8,1 --- 8,8
25.03.2021 3,3 4,5 7,9 8,2 16,5 -0,1 66 0,0 2829 0,9 5,5 --- 8,6
24.03.2021 2,9 3,8 6,0 6,0 15,2 -2,5 67 0,0 4108 1,0 6,7 --- 9,7
23.03.2021 3,0 4,0 4,6 4,9 9,2 1,0 73 0,0 1140 1,1 4,5 --- 4,6
22.03.2021 2,8 3,7 4,1 4,5 7,6 2,3 71 0,4 1261 1,8 8,1 --- 4,3
21.03.2021 2,6 3,4 4,3 4,6 7,2 2,6 63 0,7 1523 2,7 10,1 --- 5,7
20.03.2021 2,4 2,9 1,1 0,8 6,4 -5,1 47 0,0 3404 1,3 6,5 --- 8,8
19.03.2021 2,7 3,3 1,6 1,9 6,1 -1,1 70 0,3 2705 1,8 11,0 --- 7,3
18.03.2021 2,6 3,2 1,8 1,2 7,0 -3,1 81 0,5 2706 1,0 6,0 --- 7,8
17.03.2021 2,9 3,5 1,3 1,7 5,4 -2,2 76 0,0 1292 1,0 5,6 --- 3,1
16.03.2021 3,0 3,8 3,6 3,7 8,0 -0,1 74 1,4 2273 2,3 10,9 --- 6,3
15.03.2021 3,0 3,9 4,0 4,4 7,4 2,1 79 6,0 1350 2,2 12,7 --- 5,1
14.03.2021 3,0 3,8 4,2 4,5 7,0 2,9 74 1,0 1437 2,5 9,9 --- 5,5
13.03.2021 3,1 4,1 5,0 5,6 8,2 3,0 77 6,0 1434 3,2 15,6 --- 4,7
12.03.2021 3,0 4,1 6,4 6,5 10,0 2,5 62 4,1 2058 3,5 13,4 --- 6,1
11.03.2021 2,6 3,7 7,4 8,3 12,7 4,7 70 2,6 1263 2,9 15,1 --- 2,5
10.03.2021 2,0 2,9 4,4 4,5 8,5 1,1 77 0,3 1373 0,8 5,7 --- 5,9
09.03.2021 1,7 2,1 0,8 1,0 6,0 -2,1 87 5,1 880 0,4 3,5 --- 2,7
08.03.2021 1,7 2,0 1,1 1,1 6,1 -1,4 78 0,0 1157 0,7 4,0 --- 4,0
07.03.2021 1,8 1,7 -0,8 -0,6 6,2 -6,1 72 0,1 2692 1,0 6,4 --- 7,5
06.03.2021 2,3 2,3 -1,0 -0,5 8,1 -6,3 69 0,0 2801 0,7 5,1 --- 8,2
05.03.2021 3,0 3,7 1,6 2,1 6,8 -3,3 66 0,0 1904 1,7 8,5 --- 6,3
04.03.2021 3,1 3,9 4,1 4,7 9,4 2,6 90 5,1 986 0,9 4,8 --- 1,7
03.03.2021 2,9 3,6 4,9 5,8 16,9 -1,7 72 0,0 2767 0,7 3,5 --- 7,4
02.03.2021 2,9 3,9 5,7 6,1 17,1 0,2 71 0,0 3242 0,9 3,2 --- 7,7
01.03.2021 2,6 3,4 3,6 3,9 8,9 -0,4 87 0,0 2179 1,6 4,7 --- 6,2
28.02.2021 2,6 3,4 4,2 4,9 11,9 -1,0 73 0,0 3586 1,0 4,4 --- 7,9
27.02.2021 2,6 3,1 2,6 3,2 5,8 -0,7 84 0,0 1085 1,1 4,3 --- 2,4
26.02.2021 2,9 3,8 3,8 4,9 7,4 2,2 90 3,1 795 0,9 7,3 --- 0,5
25.02.2021 2,7 4,0 9,6 10,8 20,1 5,0 68 0,0 3035 0,9 5,7 --- 7,5
24.02.2021 2,1 3,6 10,7 12,0 19,3 5,5 66 0,0 2841 1,0 6,6 --- 7,2
23.02.2021 1,1 2,2 8,5 9,3 19,0 1,5 69 0,0 2564 0,9 7,4 --- 6,9
22.02.2021 0,4 0,9 4,6 6,0 14,6 -0,1 74 0,0 2627 0,6 2,3 --- 6,9
21.02.2021 0,3 0,6 8,2 10,1 19,8 4,1 57 0,0 3028 0,9 4,9 --- 7,4
20.02.2021 0,3 0,6 5,4 6,9 16,7 1,6 76 0,0 2562 0,6 4,3 --- 6,6
19.02.2021 0,3 0,6 4,6 5,6 10,9 1,4 71 0,3 2545 1,2 6,7 --- 6,3
18.02.2021 0,4 0,6 3,0 4,5 8,8 -0,5 77 0,2 1324 0,8 5,4 --- 5,2
17.02.2021 0,5 0,5 4,3 5,7 8,9 2,0 81 1,8 2050 1,1 7,4 --- 3,5
16.02.2021 0,6 0,9 2,5 3,7 11,6 0,6 83 11,3 1964 0,5 3,3 --- 4,0
15.02.2021 0,7 1,0 -3,5 -2,4 1,7 -9,0 56 0,1 923 1,0 5,8 --- 1,0
14.02.2021 0,8 1,1 -12,5 -9,7 3,9 -18,9 69 3,9 2656 0,5 3,1 --- 6,8
13.02.2021 0,9 1,1 -12,6 -10,4 -4,7 -16,0 80 0,0 2719 1,2 5,0 --- 7,4
12.02.2021 0,9 1,2 -10,8 -9,7 -3,9 -14,9 77 0,0 2718 1,5 9,6 --- 6,2
11.02.2021 1,0 1,2 -8,4 -7,4 -2,0 -13,4 78 0,0 1831 0,5 3,5 --- 2,3
10.02.2021 1,1 1,3 -14,2 -12,8 -3,0 -20,7 77 0,0 2506 0,8 7,0 --- 6,1
09.02.2021 1,3 1,5 -14,7 -13,0 -5,9 -18,4 73 0,0 1927 0,6 2,4 --- 4,3
08.02.2021 1,5 1,7 -8,6 -8,5 -6,9 -11,5 74 0,0 1251 2,8 7,7 --- 5,0
07.02.2021 1,7 1,9 -5,2 -4,8 -1,7 -7,0 79 0,0 348 5,7 18,0 --- ---
06.02.2021 2,2 2,8 0,8 1,4 4,4 -1,6 88 1,4 309 4,3 18,3 --- ---
05.02.2021 2,4 2,9 1,9 2,9 5,4 -0,9 91 3,6 420 0,9 3,5 --- ---
04.02.2021 2,8 4,2 4,9 6,2 9,1 0,5 78 2,0 1530 2,9 10,2 --- 3,6
03.02.2021 2,1 3,7 5,9 7,4 10,3 2,9 91 14,5 535 1,7 11,7 --- 0,6
02.02.2021 1,1 1,9 3,7 4,4 7,7 2,0 92 2,9 409 0,8 4,0 --- ---
01.02.2021 1,3 0,2 -0,6 0,8 3,1 -1,3 91 1,4 491 1,4 4,1 --- 0,4
31.01.2021 2,0 0,0 -2,9 -1,1 4,1 -5,2 75 0,0 2039 2,0 8,6 --- 6,3
30.01.2021 2,8 1,2 0,1 1,9 7,1 -0,9 78 2,2 771 3,5 12,8 --- 2,1
29.01.2021 2,2 1,3 2,6 4,5 9,9 1,4 88 15,2 505 1,6 5,4 --- 0,2
28.01.2021 1,7 0,7 0,5 2,1 3,1 1,5 95 14,7 157 1,4 5,1 --- ---
27.01.2021 1,5 0,2 -0,9 0,6 1,5 -0,9 90 0,7 639 2,1 7,4 --- 0,5
26.01.2021 1,6 0,5 -1,1 0,5 3,6 -2,6 87 1,9 916 2,4 10,1 --- 0,2
25.01.2021 1,9 0,6 -2,1 -0,8 1,9 -3,1 90 0,3 707 0,8 3,3 --- 2,6
24.01.2021 2,3 1,3 0,3 1,6 2,4 -0,6 87 0,9 464 1,2 9,7 --- ---
23.01.2021 2,6 1,8 0,8 2,1 3,8 0,0 92 0,1 395 0,9 5,0 --- 0,7
22.01.2021 2,9 2,9 4,3 5,8 10,4 1,0 85 5,0 543 1,7 13,2 --- 0,1
21.01.2021 2,0 2,2 5,8 7,9 11,2 4,1 64 2,9 564 2,7 13,0 --- 0,6
20.01.2021 1,3 1,4 2,8 4,6 9,2 0,0 67 0,0 1082 1,7 8,1 --- 3,4
19.01.2021 1,0 1,4 2,3 3,3 4,6 1,9 83 3,5 237 2,5 8,4 --- ---
18.01.2021 0,9 1,2 1,0 1,8 3,3 -0,5 87 2,8 578 0,9 5,7 --- 0,4
17.01.2021 0,8 1,0 -1,8 -1,6 0,4 -2,9 81 1,3 519 0,2 1,7 --- ---
16.01.2021 1,0 1,1 -2,1 -1,8 -0,5 -2,6 63 0,0 473 1,2 5,1 --- ---
15.01.2021 1,2 1,3 -1,4 -0,9 0,9 -3,7 80 0,0 411 1,1 5,4 --- ---
14.01.2021 1,3 1,5 0,1 0,7 4,4 -0,4 71 0,1 572 2,0 10,6 --- 1,6
13.01.2021 1,5 1,6 0,8 1,8 3,8 0,5 73 0,0 1108 2,8 10,5 --- 0,9
12.01.2021 1,6 1,9 1,1 2,1 3,5 1,0 84 0,0 416 2,2 8,4 --- ---
11.01.2021 1,8 1,9 -1,1 -0,7 2,1 -4,4 74 0,0 981 1,4 7,8 --- 2,5
10.01.2021 1,9 2,2 -1,3 -0,6 2,8 -3,9 86 0,0 739 0,3 1,7 --- 1,8
09.01.2021 2,0 2,3 -1,1 -0,5 1,0 -2,7 86 0,0 450 0,7 3,9 --- 0,2
08.01.2021 2,1 2,4 0,1 0,5 1,3 -0,6 91 0,0 686 0,6 4,7 --- 0,8
07.01.2021 2,2 2,4 0,1 0,6 1,9 -0,2 81 0,0 345 0,9 4,6 --- ---
06.01.2021 2,3 2,6 0,8 1,4 2,2 0,4 88 0,0 232 1,2 6,4 --- ---
05.01.2021 2,3 2,6 0,5 1,0 1,6 0,5 90 0,3 149 2,6 6,4 --- ---
04.01.2021 2,5 2,7 0,0 0,6 0,9 0,2 90 0,0 109 1,8 4,8 --- ---
03.01.2021 2,7 2,9 0,7 1,3 2,3 0,1 79 0,3 148 2,6 8,5 --- ---
02.01.2021 2,8 3,1 1,2 1,5 3,0 0,3 84 0,0 488 0,8 7,1 --- ---
01.01.2021 2,9 3,2 1,0 1,3 2,1 0,7 92 1,3 232 0,4 2,3 --- ---

Mittelwerte (Temperaturen, Strahlung, rel. Feuchte, Wind), Summe (Regen) für 2021
3,1 3,7 3,0 3,6 73 174 2.082 1,5

Landesbetrieb Landwirtschaft Hessen 2009

      Werte bis 5 Uhr SommerzeitCSV-Datei: Niedergude21.csvDiagramm: Niedergude